sensor_id;sensor_type;location;lat;lon;timestamp;P1;durP1;ratioP1;P2;durP2;ratioP2
75787;SDS011;64406;50.024;14.492;2023-11-19T00:02:22;11.77;;;7.25;;
75787;SDS011;64406;50.024;14.492;2023-11-19T00:04:47;16.50;;;8.55;;
75787;SDS011;64406;50.024;14.492;2023-11-19T00:07:13;15.52;;;7.97;;
75787;SDS011;64406;50.024;14.492;2023-11-19T00:09:39;15.15;;;7.93;;
75787;SDS011;64406;50.024;14.492;2023-11-19T00:12:06;13.70;;;7.57;;
75787;SDS011;64406;50.024;14.492;2023-11-19T00:14:35;16.42;;;9.20;;
75787;SDS011;64406;50.024;14.492;2023-11-19T00:17:01;13.93;;;7.85;;
75787;SDS011;64406;50.024;14.492;2023-11-19T00:19:26;14.32;;;7.78;;
75787;SDS011;64406;50.024;14.492;2023-11-19T00:21:52;13.35;;;7.68;;
75787;SDS011;64406;50.024;14.492;2023-11-19T00:24:18;14.95;;;7.68;;
75787;SDS011;64406;50.024;14.492;2023-11-19T00:26:44;12.32;;;7.82;;
75787;SDS011;64406;50.024;14.492;2023-11-19T00:29:09;13.27;;;7.95;;
75787;SDS011;64406;50.024;14.492;2023-11-19T00:31:35;17.90;;;8.23;;
75787;SDS011;64406;50.024;14.492;2023-11-19T00:34:02;13.52;;;7.60;;
75787;SDS011;64406;50.024;14.492;2023-11-19T00:36:28;15.50;;;8.02;;
75787;SDS011;64406;50.024;14.492;2023-11-19T00:38:53;15.55;;;8.93;;
75787;SDS011;64406;50.024;14.492;2023-11-19T00:41:19;12.63;;;6.72;;
75787;SDS011;64406;50.024;14.492;2023-11-19T00:43:45;14.82;;;7.93;;
75787;SDS011;64406;50.024;14.492;2023-11-19T00:46:11;10.50;;;6.88;;
75787;SDS011;64406;50.024;14.492;2023-11-19T00:48:38;13.52;;;7.50;;
75787;SDS011;64406;50.024;14.492;2023-11-19T00:51:04;10.45;;;6.43;;
75787;SDS011;64406;50.024;14.492;2023-11-19T00:53:30;10.13;;;5.55;;
75787;SDS011;64406;50.024;14.492;2023-11-19T00:55:57;9.80;;;5.32;;
75787;SDS011;64406;50.024;14.492;2023-11-19T00:58:23;8.10;;;5.50;;
75787;SDS011;64406;50.024;14.492;2023-11-19T01:00:49;6.93;;;4.82;;
75787;SDS011;64406;50.024;14.492;2023-11-19T01:03:14;9.13;;;4.80;;
75787;SDS011;64406;50.024;14.492;2023-11-19T01:05:43;11.60;;;5.85;;
75787;SDS011;64406;50.024;14.492;2023-11-19T01:08:12;8.07;;;5.22;;
75787;SDS011;64406;50.024;14.492;2023-11-19T01:10:37;8.55;;;5.50;;
75787;SDS011;64406;50.024;14.492;2023-11-19T01:13:03;9.25;;;4.45;;
75787;SDS011;64406;50.024;14.492;2023-11-19T01:15:31;10.30;;;5.35;;
75787;SDS011;64406;50.024;14.492;2023-11-19T01:17:57;6.85;;;3.92;;
75787;SDS011;64406;50.024;14.492;2023-11-19T01:20:23;8.55;;;4.72;;
75787;SDS011;64406;50.024;14.492;2023-11-19T01:22:48;9.13;;;4.93;;
75787;SDS011;64406;50.024;14.492;2023-11-19T01:25:14;8.40;;;5.00;;
75787;SDS011;64406;50.024;14.492;2023-11-19T01:27:40;8.18;;;4.93;;
75787;SDS011;64406;50.024;14.492;2023-11-19T01:30:06;6.63;;;4.97;;
75787;SDS011;64406;50.024;14.492;2023-11-19T01:32:38;10.10;;;5.32;;
75787;SDS011;64406;50.024;14.492;2023-11-19T01:35:04;12.38;;;6.05;;
75787;SDS011;64406;50.024;14.492;2023-11-19T01:37:29;10.18;;;5.40;;
75787;SDS011;64406;50.024;14.492;2023-11-19T01:39:57;9.23;;;5.20;;
75787;SDS011;64406;50.024;14.492;2023-11-19T01:42:23;8.70;;;5.00;;
75787;SDS011;64406;50.024;14.492;2023-11-19T01:44:59;8.95;;;5.38;;
75787;SDS011;64406;50.024;14.492;2023-11-19T01:47:29;9.77;;;5.07;;
75787;SDS011;64406;50.024;14.492;2023-11-19T01:49:56;11.20;;;5.78;;
75787;SDS011;64406;50.024;14.492;2023-11-19T01:52:22;9.18;;;5.22;;
75787;SDS011;64406;50.024;14.492;2023-11-19T01:54:49;10.65;;;6.38;;
75787;SDS011;64406;50.024;14.492;2023-11-19T01:57:15;11.63;;;6.43;;
75787;SDS011;64406;50.024;14.492;2023-11-19T01:59:41;8.38;;;5.45;;
75787;SDS011;64406;50.024;14.492;2023-11-19T02:02:07;11.23;;;6.18;;
75787;SDS011;64406;50.024;14.492;2023-11-19T02:04:33;7.55;;;5.05;;
75787;SDS011;64406;50.024;14.492;2023-11-19T02:07:00;7.15;;;4.82;;
75787;SDS011;64406;50.024;14.492;2023-11-19T02:09:25;10.52;;;5.70;;
75787;SDS011;64406;50.024;14.492;2023-11-19T02:11:52;10.05;;;6.03;;
75787;SDS011;64406;50.024;14.492;2023-11-19T02:14:19;8.13;;;5.00;;
75787;SDS011;64406;50.024;14.492;2023-11-19T02:16:50;8.98;;;5.90;;
75787;SDS011;64406;50.024;14.492;2023-11-19T02:19:19;11.85;;;5.75;;
75787;SDS011;64406;50.024;14.492;2023-11-19T02:21:45;8.60;;;5.03;;
75787;SDS011;64406;50.024;14.492;2023-11-19T02:24:11;12.38;;;6.53;;
75787;SDS011;64406;50.024;14.492;2023-11-19T02:26:40;8.75;;;5.40;;
75787;SDS011;64406;50.024;14.492;2023-11-19T02:29:15;8.18;;;5.53;;
75787;SDS011;64406;50.024;14.492;2023-11-19T02:31:41;8.50;;;4.72;;
75787;SDS011;64406;50.024;14.492;2023-11-19T02:34:06;7.85;;;5.20;;
75787;SDS011;64406;50.024;14.492;2023-11-19T02:36:32;14.10;;;5.60;;
75787;SDS011;64406;50.024;14.492;2023-11-19T02:38:58;7.68;;;5.13;;
75787;SDS011;64406;50.024;14.492;2023-11-19T02:41:23;8.60;;;4.95;;
75787;SDS011;64406;50.024;14.492;2023-11-19T02:43:49;8.48;;;5.13;;
75787;SDS011;64406;50.024;14.492;2023-11-19T02:46:15;10.07;;;5.50;;
75787;SDS011;64406;50.024;14.492;2023-11-19T02:48:43;10.25;;;5.50;;
75787;SDS011;64406;50.024;14.492;2023-11-19T02:51:09;10.05;;;5.95;;
75787;SDS011;64406;50.024;14.492;2023-11-19T02:53:35;10.05;;;5.53;;
75787;SDS011;64406;50.024;14.492;2023-11-19T02:56:02;12.30;;;6.10;;
75787;SDS011;64406;50.024;14.492;2023-11-19T02:58:37;11.57;;;5.57;;
75787;SDS011;64406;50.024;14.492;2023-11-19T03:01:04;11.18;;;6.35;;
75787;SDS011;64406;50.024;14.492;2023-11-19T03:03:48;12.73;;;5.93;;
75787;SDS011;64406;50.024;14.492;2023-11-19T03:06:19;8.15;;;5.15;;
75787;SDS011;64406;50.024;14.492;2023-11-19T03:08:45;10.65;;;5.70;;
75787;SDS011;64406;50.024;14.492;2023-11-19T03:11:10;10.45;;;6.22;;
75787;SDS011;64406;50.024;14.492;2023-11-19T03:13:36;10.45;;;5.75;;
75787;SDS011;64406;50.024;14.492;2023-11-19T03:16:02;10.85;;;5.70;;
75787;SDS011;64406;50.024;14.492;2023-11-19T03:18:27;8.90;;;5.43;;
75787;SDS011;64406;50.024;14.492;2023-11-19T03:20:53;8.48;;;5.65;;
75787;SDS011;64406;50.024;14.492;2023-11-19T03:23:19;8.00;;;4.60;;
75787;SDS011;64406;50.024;14.492;2023-11-19T03:25:44;7.40;;;4.70;;
75787;SDS011;64406;50.024;14.492;2023-11-19T03:28:10;8.35;;;4.75;;
75787;SDS011;64406;50.024;14.492;2023-11-19T03:30:36;8.23;;;4.78;;
75787;SDS011;64406;50.024;14.492;2023-11-19T03:33:01;7.35;;;4.70;;
75787;SDS011;64406;50.024;14.492;2023-11-19T03:35:28;8.90;;;4.95;;
75787;SDS011;64406;50.024;14.492;2023-11-19T03:37:54;7.95;;;5.28;;
75787;SDS011;64406;50.024;14.492;2023-11-19T03:40:19;5.80;;;4.32;;
75787;SDS011;64406;50.024;14.492;2023-11-19T03:42:45;7.75;;;5.10;;
75787;SDS011;64406;50.024;14.492;2023-11-19T03:45:11;6.75;;;4.63;;
75787;SDS011;64406;50.024;14.492;2023-11-19T03:47:37;7.72;;;4.70;;
75787;SDS011;64406;50.024;14.492;2023-11-19T03:50:04;6.35;;;4.22;;
75787;SDS011;64406;50.024;14.492;2023-11-19T03:52:30;8.35;;;4.45;;
75787;SDS011;64406;50.024;14.492;2023-11-19T03:54:56;10.40;;;5.78;;
75787;SDS011;64406;50.024;14.492;2023-11-19T03:57:22;9.65;;;4.93;;
75787;SDS011;64406;50.024;14.492;2023-11-19T03:59:48;7.75;;;4.55;;
75787;SDS011;64406;50.024;14.492;2023-11-19T04:02:14;8.88;;;5.18;;
75787;SDS011;64406;50.024;14.492;2023-11-19T04:04:41;6.53;;;4.50;;
75787;SDS011;64406;50.024;14.492;2023-11-19T04:07:06;7.63;;;4.78;;
75787;SDS011;64406;50.024;14.492;2023-11-19T04:09:32;10.27;;;4.70;;
75787;SDS011;64406;50.024;14.492;2023-11-19T04:11:58;7.97;;;4.55;;
75787;SDS011;64406;50.024;14.492;2023-11-19T04:14:24;5.93;;;3.95;;
75787;SDS011;64406;50.024;14.492;2023-11-19T04:16:50;8.13;;;4.70;;
75787;SDS011;64406;50.024;14.492;2023-11-19T04:19:17;7.05;;;4.13;;
75787;SDS011;64406;50.024;14.492;2023-11-19T04:21:43;6.55;;;4.20;;
75787;SDS011;64406;50.024;14.492;2023-11-19T04:24:09;9.13;;;4.82;;
75787;SDS011;64406;50.024;14.492;2023-11-19T04:26:44;7.63;;;4.80;;
75787;SDS011;64406;50.024;14.492;2023-11-19T04:29:11;8.13;;;4.85;;
75787;SDS011;64406;50.024;14.492;2023-11-19T04:31:42;7.45;;;4.45;;
75787;SDS011;64406;50.024;14.492;2023-11-19T04:34:09;5.97;;;4.07;;
75787;SDS011;64406;50.024;14.492;2023-11-19T04:36:36;8.60;;;4.70;;
75787;SDS011;64406;50.024;14.492;2023-11-19T04:39:03;8.35;;;5.00;;
75787;SDS011;64406;50.024;14.492;2023-11-19T04:41:50;8.02;;;4.57;;
75787;SDS011;64406;50.024;14.492;2023-11-19T04:44:20;8.20;;;4.72;;
75787;SDS011;64406;50.024;14.492;2023-11-19T04:46:45;9.95;;;4.43;;
75787;SDS011;64406;50.024;14.492;2023-11-19T04:49:12;6.57;;;4.47;;
75787;SDS011;64406;50.024;14.492;2023-11-19T04:51:41;7.88;;;4.45;;
75787;SDS011;64406;50.024;14.492;2023-11-19T04:54:08;8.77;;;4.38;;
75787;SDS011;64406;50.024;14.492;2023-11-19T04:56:34;8.50;;;5.20;;
75787;SDS011;64406;50.024;14.492;2023-11-19T04:59:02;7.28;;;5.10;;
75787;SDS011;64406;50.024;14.492;2023-11-19T05:01:28;9.27;;;4.75;;
75787;SDS011;64406;50.024;14.492;2023-11-19T05:03:53;6.80;;;4.40;;
75787;SDS011;64406;50.024;14.492;2023-11-19T05:06:19;7.30;;;4.47;;
75787;SDS011;64406;50.024;14.492;2023-11-19T05:08:45;7.47;;;4.95;;
75787;SDS011;64406;50.024;14.492;2023-11-19T05:11:11;8.93;;;4.78;;
75787;SDS011;64406;50.024;14.492;2023-11-19T05:13:39;8.15;;;4.80;;
75787;SDS011;64406;50.024;14.492;2023-11-19T05:16:04;8.05;;;4.82;;
75787;SDS011;64406;50.024;14.492;2023-11-19T05:18:30;8.73;;;4.53;;
75787;SDS011;64406;50.024;14.492;2023-11-19T05:20:56;7.30;;;4.97;;
75787;SDS011;64406;50.024;14.492;2023-11-19T05:23:21;5.88;;;3.90;;
75787;SDS011;64406;50.024;14.492;2023-11-19T05:25:47;10.25;;;4.75;;
75787;SDS011;64406;50.024;14.492;2023-11-19T05:28:13;8.95;;;4.68;;
75787;SDS011;64406;50.024;14.492;2023-11-19T05:30:39;8.85;;;5.13;;
75787;SDS011;64406;50.024;14.492;2023-11-19T05:33:06;7.13;;;4.35;;
75787;SDS011;64406;50.024;14.492;2023-11-19T05:35:34;9.93;;;5.28;;
75787;SDS011;64406;50.024;14.492;2023-11-19T05:38:00;9.73;;;5.68;;
75787;SDS011;64406;50.024;14.492;2023-11-19T05:40:27;8.68;;;4.75;;
75787;SDS011;64406;50.024;14.492;2023-11-19T05:42:53;6.57;;;4.10;;
75787;SDS011;64406;50.024;14.492;2023-11-19T05:45:19;8.65;;;4.75;;
75787;SDS011;64406;50.024;14.492;2023-11-19T05:47:44;7.63;;;4.25;;
75787;SDS011;64406;50.024;14.492;2023-11-19T05:50:10;7.95;;;4.80;;
75787;SDS011;64406;50.024;14.492;2023-11-19T05:52:36;6.85;;;4.35;;
75787;SDS011;64406;50.024;14.492;2023-11-19T05:55:01;8.88;;;4.53;;
75787;SDS011;64406;50.024;14.492;2023-11-19T05:57:30;8.02;;;4.72;;
75787;SDS011;64406;50.024;14.492;2023-11-19T05:59:55;7.55;;;4.18;;
75787;SDS011;64406;50.024;14.492;2023-11-19T06:02:21;7.78;;;4.68;;
75787;SDS011;64406;50.024;14.492;2023-11-19T06:04:47;7.45;;;4.03;;
75787;SDS011;64406;50.024;14.492;2023-11-19T06:07:13;6.88;;;4.70;;
75787;SDS011;64406;50.024;14.492;2023-11-19T06:09:40;7.75;;;4.45;;
75787;SDS011;64406;50.024;14.492;2023-11-19T06:12:06;8.30;;;4.95;;
75787;SDS011;64406;50.024;14.492;2023-11-19T06:14:32;8.70;;;4.32;;
75787;SDS011;64406;50.024;14.492;2023-11-19T06:16:58;7.28;;;3.92;;
75787;SDS011;64406;50.024;14.492;2023-11-19T06:19:24;9.07;;;4.40;;
75787;SDS011;64406;50.024;14.492;2023-11-19T06:21:52;6.75;;;3.80;;
75787;SDS011;64406;50.024;14.492;2023-11-19T06:24:17;8.20;;;4.28;;
75787;SDS011;64406;50.024;14.492;2023-11-19T06:26:43;5.38;;;3.38;;
75787;SDS011;64406;50.024;14.492;2023-11-19T06:29:09;7.65;;;4.20;;
75787;SDS011;64406;50.024;14.492;2023-11-19T06:31:34;8.57;;;3.88;;
75787;SDS011;64406;50.024;14.492;2023-11-19T06:34:00;21.58;;;5.00;;
75787;SDS011;64406;50.024;14.492;2023-11-19T06:36:26;6.95;;;4.15;;
75787;SDS011;64406;50.024;14.492;2023-11-19T06:38:51;5.30;;;4.00;;
75787;SDS011;64406;50.024;14.492;2023-11-19T06:41:17;8.52;;;4.43;;
75787;SDS011;64406;50.024;14.492;2023-11-19T06:43:43;7.05;;;4.43;;
75787;SDS011;64406;50.024;14.492;2023-11-19T06:46:15;9.63;;;4.32;;
75787;SDS011;64406;50.024;14.492;2023-11-19T06:48:41;7.78;;;4.55;;
75787;SDS011;64406;50.024;14.492;2023-11-19T06:51:09;7.72;;;4.25;;
75787;SDS011;64406;50.024;14.492;2023-11-19T06:53:35;7.60;;;5.15;;
75787;SDS011;64406;50.024;14.492;2023-11-19T06:56:01;7.05;;;4.30;;
75787;SDS011;64406;50.024;14.492;2023-11-19T06:58:37;8.45;;;4.63;;
75787;SDS011;64406;50.024;14.492;2023-11-19T07:01:06;6.07;;;4.38;;
75787;SDS011;64406;50.024;14.492;2023-11-19T07:03:34;8.75;;;4.95;;
75787;SDS011;64406;50.024;14.492;2023-11-19T07:06:00;8.05;;;5.03;;
75787;SDS011;64406;50.024;14.492;2023-11-19T07:08:26;11.55;;;5.07;;
75787;SDS011;64406;50.024;14.492;2023-11-19T07:10:52;9.68;;;4.97;;
75787;SDS011;64406;50.024;14.492;2023-11-19T07:13:18;9.98;;;5.53;;
75787;SDS011;64406;50.024;14.492;2023-11-19T07:15:44;9.27;;;5.28;;
75787;SDS011;64406;50.024;14.492;2023-11-19T07:18:10;9.85;;;5.25;;
75787;SDS011;64406;50.024;14.492;2023-11-19T07:20:37;8.57;;;5.30;;
75787;SDS011;64406;50.024;14.492;2023-11-19T07:23:03;9.73;;;5.03;;
75787;SDS011;64406;50.024;14.492;2023-11-19T07:25:29;8.13;;;4.25;;
75787;SDS011;64406;50.024;14.492;2023-11-19T07:27:54;7.53;;;4.78;;
75787;SDS011;64406;50.024;14.492;2023-11-19T07:30:21;4.90;;;4.00;;
75787;SDS011;64406;50.024;14.492;2023-11-19T07:32:47;7.47;;;4.63;;
75787;SDS011;64406;50.024;14.492;2023-11-19T07:35:14;9.00;;;4.55;;
75787;SDS011;64406;50.024;14.492;2023-11-19T07:37:41;6.75;;;4.35;;
75787;SDS011;64406;50.024;14.492;2023-11-19T07:40:07;5.88;;;4.03;;
75787;SDS011;64406;50.024;14.492;2023-11-19T07:42:33;5.47;;;4.35;;
75787;SDS011;64406;50.024;14.492;2023-11-19T07:44:59;7.30;;;4.78;;
75787;SDS011;64406;50.024;14.492;2023-11-19T07:47:25;7.03;;;4.70;;
75787;SDS011;64406;50.024;14.492;2023-11-19T07:49:50;8.20;;;4.88;;
75787;SDS011;64406;50.024;14.492;2023-11-19T07:52:16;6.70;;;4.25;;
75787;SDS011;64406;50.024;14.492;2023-11-19T07:54:42;5.85;;;4.55;;
75787;SDS011;64406;50.024;14.492;2023-11-19T07:57:07;10.40;;;5.55;;
75787;SDS011;64406;50.024;14.492;2023-11-19T07:59:33;6.80;;;4.35;;
75787;SDS011;64406;50.024;14.492;2023-11-19T08:01:59;7.20;;;4.35;;
75787;SDS011;64406;50.024;14.492;2023-11-19T08:04:24;8.10;;;4.60;;
75787;SDS011;64406;50.024;14.492;2023-11-19T08:06:50;6.93;;;4.10;;
75787;SDS011;64406;50.024;14.492;2023-11-19T08:09:16;5.65;;;4.40;;
75787;SDS011;64406;50.024;14.492;2023-11-19T08:11:42;6.63;;;4.20;;
75787;SDS011;64406;50.024;14.492;2023-11-19T08:14:08;6.50;;;4.10;;
75787;SDS011;64406;50.024;14.492;2023-11-19T08:16:34;9.20;;;4.88;;
75787;SDS011;64406;50.024;14.492;2023-11-19T08:19:01;8.25;;;4.75;;
75787;SDS011;64406;50.024;14.492;2023-11-19T08:21:28;6.25;;;4.72;;
75787;SDS011;64406;50.024;14.492;2023-11-19T08:23:54;6.70;;;4.20;;
75787;SDS011;64406;50.024;14.492;2023-11-19T08:26:19;7.28;;;4.22;;
75787;SDS011;64406;50.024;14.492;2023-11-19T08:28:45;6.50;;;3.92;;
75787;SDS011;64406;50.024;14.492;2023-11-19T08:31:10;6.40;;;4.35;;
75787;SDS011;64406;50.024;14.492;2023-11-19T08:33:36;7.63;;;4.68;;
75787;SDS011;64406;50.024;14.492;2023-11-19T08:36:02;5.82;;;4.18;;
75787;SDS011;64406;50.024;14.492;2023-11-19T08:38:29;7.10;;;4.70;;
75787;SDS011;64406;50.024;14.492;2023-11-19T08:40:55;8.05;;;5.30;;
75787;SDS011;64406;50.024;14.492;2023-11-19T08:43:25;5.88;;;4.45;;
75787;SDS011;64406;50.024;14.492;2023-11-19T08:45:51;7.03;;;4.13;;
75787;SDS011;64406;50.024;14.492;2023-11-19T08:48:17;8.80;;;4.28;;
75787;SDS011;64406;50.024;14.492;2023-11-19T08:50:42;6.65;;;4.53;;
75787;SDS011;64406;50.024;14.492;2023-11-19T08:53:08;7.43;;;4.13;;
75787;SDS011;64406;50.024;14.492;2023-11-19T08:55:34;6.90;;;4.28;;
75787;SDS011;64406;50.024;14.492;2023-11-19T08:57:59;8.63;;;4.30;;
75787;SDS011;64406;50.024;14.492;2023-11-19T09:00:25;8.65;;;4.38;;
75787;SDS011;64406;50.024;14.492;2023-11-19T09:02:51;8.00;;;4.57;;
75787;SDS011;64406;50.024;14.492;2023-11-19T09:05:16;7.95;;;4.50;;
75787;SDS011;64406;50.024;14.492;2023-11-19T09:07:42;7.65;;;4.65;;
75787;SDS011;64406;50.024;14.492;2023-11-19T09:10:07;7.03;;;3.60;;
75787;SDS011;64406;50.024;14.492;2023-11-19T09:12:34;7.25;;;4.28;;
75787;SDS011;64406;50.024;14.492;2023-11-19T09:15:00;7.15;;;4.53;;
75787;SDS011;64406;50.024;14.492;2023-11-19T09:17:26;7.65;;;5.32;;
75787;SDS011;64406;50.024;14.492;2023-11-19T09:19:51;9.23;;;4.93;;
75787;SDS011;64406;50.024;14.492;2023-11-19T09:22:17;9.10;;;5.28;;
75787;SDS011;64406;50.024;14.492;2023-11-19T09:24:43;10.32;;;5.85;;
75787;SDS011;64406;50.024;14.492;2023-11-19T09:27:10;6.78;;;4.78;;
75787;SDS011;64406;50.024;14.492;2023-11-19T09:29:36;8.32;;;5.05;;
75787;SDS011;64406;50.024;14.492;2023-11-19T09:32:01;8.32;;;4.57;;
75787;SDS011;64406;50.024;14.492;2023-11-19T09:34:27;7.60;;;4.13;;
75787;SDS011;64406;50.024;14.492;2023-11-19T09:36:53;18.02;;;4.97;;
75787;SDS011;64406;50.024;14.492;2023-11-19T09:39:19;6.45;;;3.90;;
75787;SDS011;64406;50.024;14.492;2023-11-19T09:41:46;8.80;;;4.45;;
75787;SDS011;64406;50.024;14.492;2023-11-19T09:44:12;5.88;;;4.05;;
75787;SDS011;64406;50.024;14.492;2023-11-19T09:46:41;6.18;;;3.90;;
75787;SDS011;64406;50.024;14.492;2023-11-19T09:49:07;6.20;;;3.80;;
75787;SDS011;64406;50.024;14.492;2023-11-19T09:51:35;7.38;;;4.45;;
75787;SDS011;64406;50.024;14.492;2023-11-19T09:54:01;7.03;;;5.00;;
75787;SDS011;64406;50.024;14.492;2023-11-19T09:56:28;7.97;;;5.13;;
75787;SDS011;64406;50.024;14.492;2023-11-19T09:58:57;9.55;;;4.93;;
75787;SDS011;64406;50.024;14.492;2023-11-19T10:01:24;6.18;;;3.80;;
75787;SDS011;64406;50.024;14.492;2023-11-19T10:03:50;6.95;;;5.05;;
75787;SDS011;64406;50.024;14.492;2023-11-19T10:06:20;6.68;;;4.63;;
75787;SDS011;64406;50.024;14.492;2023-11-19T10:08:45;7.97;;;4.82;;
75787;SDS011;64406;50.024;14.492;2023-11-19T10:11:11;7.65;;;4.70;;
75787;SDS011;64406;50.024;14.492;2023-11-19T10:13:38;5.55;;;3.88;;
75787;SDS011;64406;50.024;14.492;2023-11-19T10:16:07;5.05;;;3.85;;
75787;SDS011;64406;50.024;14.492;2023-11-19T10:18:34;5.93;;;4.00;;
75787;SDS011;64406;50.024;14.492;2023-11-19T10:21:04;8.60;;;4.45;;
75787;SDS011;64406;50.024;14.492;2023-11-19T10:23:31;6.28;;;4.55;;
75787;SDS011;64406;50.024;14.492;2023-11-19T10:26:12;7.20;;;4.95;;
75787;SDS011;64406;50.024;14.492;2023-11-19T10:28:41;6.65;;;4.18;;
75787;SDS011;64406;50.024;14.492;2023-11-19T10:31:09;3.05;;;2.35;;
75787;SDS011;64406;50.024;14.492;2023-11-19T10:33:35;3.90;;;2.65;;
75787;SDS011;64406;50.024;14.492;2023-11-19T10:36:01;4.35;;;2.50;;
75787;SDS011;64406;50.024;14.492;2023-11-19T10:38:26;3.42;;;1.90;;
75787;SDS011;64406;50.024;14.492;2023-11-19T10:40:52;5.32;;;2.00;;
75787;SDS011;64406;50.024;14.492;2023-11-19T10:43:19;3.75;;;1.50;;
75787;SDS011;64406;50.024;14.492;2023-11-19T10:45:49;2.25;;;1.75;;
75787;SDS011;64406;50.024;14.492;2023-11-19T10:48:15;3.17;;;1.40;;
75787;SDS011;64406;50.024;14.492;2023-11-19T10:50:42;2.03;;;1.10;;
75787;SDS011;64406;50.024;14.492;2023-11-19T10:53:10;1.95;;;1.20;;
75787;SDS011;64406;50.024;14.492;2023-11-19T10:55:38;2.40;;;1.00;;
75787;SDS011;64406;50.024;14.492;2023-11-19T10:58:05;0.90;;;0.80;;
75787;SDS011;64406;50.024;14.492;2023-11-19T11:00:34;1.05;;;0.90;;
75787;SDS011;64406;50.024;14.492;2023-11-19T11:03:08;1.55;;;0.85;;
75787;SDS011;64406;50.024;14.492;2023-11-19T11:05:36;1.40;;;0.80;;
75787;SDS011;64406;50.024;14.492;2023-11-19T11:08:04;1.40;;;1.23;;
75787;SDS011;64406;50.024;14.492;2023-11-19T11:10:32;1.23;;;0.88;;
75787;SDS011;64406;50.024;14.492;2023-11-19T11:13:04;1.10;;;0.70;;
75787;SDS011;64406;50.024;14.492;2023-11-19T11:15:31;3.13;;;0.90;;
75787;SDS011;64406;50.024;14.492;2023-11-19T11:17:58;0.55;;;0.55;;
75787;SDS011;64406;50.024;14.492;2023-11-19T11:20:31;1.63;;;0.80;;
75787;SDS011;64406;50.024;14.492;2023-11-19T11:31:30;1.10;;;0.80;;
75787;SDS011;64406;50.024;14.492;2023-11-19T11:39:35;1.23;;;0.63;;
75787;SDS011;64406;50.024;14.492;2023-11-19T11:50:10;1.20;;;0.65;;
75787;SDS011;64406;50.024;14.492;2023-11-19T11:55:24;1.65;;;0.70;;
75787;SDS011;64406;50.024;14.492;2023-11-19T11:57:50;1.98;;;0.60;;
75787;SDS011;64406;50.024;14.492;2023-11-19T12:00:22;0.80;;;0.80;;
75787;SDS011;64406;50.024;14.492;2023-11-19T12:03:07;0.80;;;0.70;;
75787;SDS011;64406;50.024;14.492;2023-11-19T12:05:34;1.05;;;0.82;;
75787;SDS011;64406;50.024;14.492;2023-11-19T12:08:06;1.40;;;0.80;;
75787;SDS011;64406;50.024;14.492;2023-11-19T12:10:48;1.42;;;0.80;;
75787;SDS011;64406;50.024;14.492;2023-11-19T12:13:15;1.50;;;0.70;;
75787;SDS011;64406;50.024;14.492;2023-11-19T12:18:28;0.75;;;0.70;;
75787;SDS011;64406;50.024;14.492;2023-11-19T12:23:22;1.40;;;0.98;;
75787;SDS011;64406;50.024;14.492;2023-11-19T12:25:49;1.98;;;0.85;;
75787;SDS011;64406;50.024;14.492;2023-11-19T12:28:15;1.63;;;0.70;;
75787;SDS011;64406;50.024;14.492;2023-11-19T12:30:44;1.20;;;0.82;;
75787;SDS011;64406;50.024;14.492;2023-11-19T12:33:11;1.65;;;0.70;;
75787;SDS011;64406;50.024;14.492;2023-11-19T12:35:41;2.35;;;0.98;;
75787;SDS011;64406;50.024;14.492;2023-11-19T12:38:24;1.65;;;1.05;;
75787;SDS011;64406;50.024;14.492;2023-11-19T12:41:03;1.20;;;0.90;;
75787;SDS011;64406;50.024;14.492;2023-11-19T12:43:32;0.70;;;0.70;;
75787;SDS011;64406;50.024;14.492;2023-11-19T12:46:01;3.20;;;1.13;;
75787;SDS011;64406;50.024;14.492;2023-11-19T12:48:27;2.53;;;1.00;;
75787;SDS011;64406;50.024;14.492;2023-11-19T12:50:54;1.27;;;0.75;;
75787;SDS011;64406;50.024;14.492;2023-11-19T12:53:21;2.00;;;1.25;;
75787;SDS011;64406;50.024;14.492;2023-11-19T12:55:48;2.50;;;0.88;;
75787;SDS011;64406;50.024;14.492;2023-11-19T12:58:33;2.88;;;0.90;;
75787;SDS011;64406;50.024;14.492;2023-11-19T13:01:04;1.30;;;1.00;;
75787;SDS011;64406;50.024;14.492;2023-11-19T13:03:34;2.25;;;1.00;;
75787;SDS011;64406;50.024;14.492;2023-11-19T13:06:05;1.77;;;1.20;;
75787;SDS011;64406;50.024;14.492;2023-11-19T13:08:45;1.80;;;1.00;;
75787;SDS011;64406;50.024;14.492;2023-11-19T13:11:13;0.70;;;0.68;;
75787;SDS011;64406;50.024;14.492;2023-11-19T13:13:58;1.95;;;0.70;;
75787;SDS011;64406;50.024;14.492;2023-11-19T13:16:25;1.60;;;0.90;;
75787;SDS011;64406;50.024;14.492;2023-11-19T13:18:52;1.77;;;0.90;;
75787;SDS011;64406;50.024;14.492;2023-11-19T13:21:18;1.13;;;0.70;;
75787;SDS011;64406;50.024;14.492;2023-11-19T13:23:44;1.42;;;0.88;;
75787;SDS011;64406;50.024;14.492;2023-11-19T13:26:10;0.57;;;0.57;;
75787;SDS011;64406;50.024;14.492;2023-11-19T13:28:37;1.95;;;0.98;;
75787;SDS011;64406;50.024;14.492;2023-11-19T13:31:03;1.92;;;0.95;;
75787;SDS011;64406;50.024;14.492;2023-11-19T13:33:29;1.58;;;0.90;;
75787;SDS011;64406;50.024;14.492;2023-11-19T13:35:55;1.40;;;0.95;;
75787;SDS011;64406;50.024;14.492;2023-11-19T13:38:21;2.35;;;1.10;;
75787;SDS011;64406;50.024;14.492;2023-11-19T13:40:48;1.52;;;1.00;;
75787;SDS011;64406;50.024;14.492;2023-11-19T13:43:14;2.15;;;1.20;;
75787;SDS011;64406;50.024;14.492;2023-11-19T13:45:40;1.60;;;1.08;;
75787;SDS011;64406;50.024;14.492;2023-11-19T13:48:05;3.40;;;1.10;;
75787;SDS011;64406;50.024;14.492;2023-11-19T13:50:31;1.40;;;1.17;;
75787;SDS011;64406;50.024;14.492;2023-11-19T13:52:57;1.73;;;1.08;;
75787;SDS011;64406;50.024;14.492;2023-11-19T13:55:23;2.33;;;1.27;;
75787;SDS011;64406;50.024;14.492;2023-11-19T13:57:48;1.98;;;1.17;;
75787;SDS011;64406;50.024;14.492;2023-11-19T14:00:14;1.60;;;1.15;;
75787;SDS011;64406;50.024;14.492;2023-11-19T14:02:45;2.47;;;1.17;;
75787;SDS011;64406;50.024;14.492;2023-11-19T14:05:12;6.72;;;1.73;;
75787;SDS011;64406;50.024;14.492;2023-11-19T14:07:39;2.63;;;1.15;;
75787;SDS011;64406;50.024;14.492;2023-11-19T14:10:05;2.45;;;1.02;;
75787;SDS011;64406;50.024;14.492;2023-11-19T14:12:32;4.28;;;1.30;;
75787;SDS011;64406;50.024;14.492;2023-11-19T14:14:58;2.03;;;1.15;;
75787;SDS011;64406;50.024;14.492;2023-11-19T14:17:25;1.33;;;1.05;;
75787;SDS011;64406;50.024;14.492;2023-11-19T14:19:51;2.28;;;0.98;;
75787;SDS011;64406;50.024;14.492;2023-11-19T14:22:17;1.20;;;1.00;;
75787;SDS011;64406;50.024;14.492;2023-11-19T14:24:42;1.45;;;1.00;;
75787;SDS011;64406;50.024;14.492;2023-11-19T14:27:09;3.88;;;1.00;;
75787;SDS011;64406;50.024;14.492;2023-11-19T14:29:35;2.42;;;1.25;;
75787;SDS011;64406;50.024;14.492;2023-11-19T14:32:02;2.00;;;1.13;;
75787;SDS011;64406;50.024;14.492;2023-11-19T14:34:28;2.20;;;1.10;;
75787;SDS011;64406;50.024;14.492;2023-11-19T14:37:00;1.83;;;1.23;;
75787;SDS011;64406;50.024;14.492;2023-11-19T14:39:26;1.30;;;0.90;;
75787;SDS011;64406;50.024;14.492;2023-11-19T14:41:52;1.83;;;1.20;;
75787;SDS011;64406;50.024;14.492;2023-11-19T14:44:19;2.03;;;1.20;;
75787;SDS011;64406;50.024;14.492;2023-11-19T14:46:46;3.65;;;1.27;;
75787;SDS011;64406;50.024;14.492;2023-11-19T14:49:11;2.05;;;1.20;;
75787;SDS011;64406;50.024;14.492;2023-11-19T14:51:39;2.25;;;1.30;;
75787;SDS011;64406;50.024;14.492;2023-11-19T14:54:05;3.00;;;1.38;;
75787;SDS011;64406;50.024;14.492;2023-11-19T14:56:31;2.63;;;1.30;;
75787;SDS011;64406;50.024;14.492;2023-11-19T14:58:57;2.30;;;1.48;;
75787;SDS011;64406;50.024;14.492;2023-11-19T15:01:22;5.28;;;1.70;;
75787;SDS011;64406;50.024;14.492;2023-11-19T15:03:48;1.58;;;1.10;;